Time;durP1;ratioP1;P1;durP2;ratioP2;P2;SDS_P1;SDS_P2;PMS_P1;PMS_P2;Temp;Humidity;BMP_temperature;BMP_pressure;BME280_temperature;BME280_humidity;BME280_pressure;Samples;Min_cycle;Max_cycle;Signal;HPM_P1;HPM_P2
2022/08/30 00:01:02;;;;;;;5.50;4.57;;;;;;;;;;5139194;27;20214;-32
2022/08/30 00:03:30;;;;;;;6.77;4.33;;;;;;;;;;5128905;27;20194;-31
2022/08/30 00:05:57;;;;;;;4.60;3.77;;;;;;;;;;5133639;27;20203;-32
2022/08/30 00:08:24;;;;;;;4.47;3.77;;;;;;;;;;5129815;27;20237;-33
2022/08/30 00:10:51;;;;;;;3.90;3.60;;;;;;;;;;5125941;27;20203;-32
2022/08/30 00:13:19;;;;;;;4.90;4.07;;;;;;;;;;5130943;27;20228;-35
2022/08/30 00:15:48;;;;;;;5.60;3.60;;;;;;;;;;5120979;27;20219;-31
2022/08/30 00:18:16;;;;;;;4.63;3.80;;;;;;;;;;5121470;27;20532;-32
2022/08/30 00:20:44;;;;;;;6.83;4.00;;;;;;;;;;5113707;28;20305;-30
2022/08/30 00:23:11;;;;;;;4.80;4.23;;;;;;;;;;5116009;27;20214;-35
2022/08/30 00:25:39;;;;;;;8.30;5.43;;;;;;;;;;5119331;27;20206;-34
2022/08/30 00:28:06;;;;;;;4.27;3.70;;;;;;;;;;5133684;27;20221;-32
2022/08/30 00:30:33;;;;;;;4.93;4.43;;;;;;;;;;5116593;27;20200;-30
2022/08/30 00:33:01;;;;;;;8.73;3.67;;;;;;;;;;5124741;27;20207;-30
2022/08/30 00:35:28;;;;;;;5.87;3.63;;;;;;;;;;5133708;27;20206;-33
2022/08/30 00:37:56;;;;;;;5.10;4.07;;;;;;;;;;5133569;27;20232;-33
2022/08/30 00:40:23;;;;;;;5.03;4.13;;;;;;;;;;5119224;27;20533;-33
2022/08/30 00:42:51;;;;;;;4.43;3.60;;;;;;;;;;5121254;27;20203;-32
2022/08/30 00:45:19;;;;;;;5.27;4.23;;;;;;;;;;5117306;27;20196;-33
2022/08/30 00:47:47;;;;;;;5.13;4.00;;;;;;;;;;5121400;27;20223;-34
2022/08/30 00:50:16;;;;;;;4.50;3.70;;;;;;;;;;5112524;28;20206;-34
2022/08/30 00:52:45;;;;;;;6.67;3.73;;;;;;;;;;5110869;27;20226;-31
2022/08/30 00:55:13;;;;;;;5.30;3.90;;;;;;;;;;5112976;27;20206;-36
2022/08/30 00:57:40;;;;;;;5.37;4.20;;;;;;;;;;5120795;27;20214;-36
2022/08/30 01:00:08;;;;;;;4.43;3.73;;;;;;;;;;5112926;27;20207;-35
2022/08/30 01:02:35;;;;;;;5.20;3.77;;;;;;;;;;5118085;27;20201;-35
2022/08/30 01:05:03;;;;;;;5.83;4.37;;;;;;;;;;5129942;27;20202;-36
2022/08/30 01:07:33;;;;;;;6.07;4.23;;;;;;;;;;5112537;28;20233;-34
2022/08/30 01:10:00;;;;;;;5.17;4.27;;;;;;;;;;5109843;27;20292;-30
2022/08/30 01:12:28;;;;;;;4.27;3.97;;;;;;;;;;5116619;27;20214;-33
2022/08/30 01:14:56;;;;;;;4.93;3.30;;;;;;;;;;5120061;27;20253;-33
2022/08/30 01:17:23;;;;;;;5.67;3.93;;;;;;;;;;5126854;27;20228;-33
2022/08/30 01:19:54;;;;;;;4.40;4.00;;;;;;;;;;5116423;27;20679;-31
2022/08/30 01:22:25;;;;;;;4.80;3.77;;;;;;;;;;5114636;27;20198;-35
2022/08/30 01:24:54;;;;;;;7.37;3.90;;;;;;;;;;5115200;27;20199;-35
2022/08/30 01:27:22;;;;;;;6.80;4.00;;;;;;;;;;5112321;28;20230;-36
2022/08/30 01:29:50;;;;;;;4.07;3.63;;;;;;;;;;5111343;27;20215;-34
2022/08/30 01:32:18;;;;;;;5.13;3.67;;;;;;;;;;5115057;27;20207;-36
2022/08/30 01:34:47;;;;;;;3.93;3.57;;;;;;;;;;5111413;28;20211;-37
2022/08/30 01:37:16;;;;;;;4.83;3.67;;;;;;;;;;5111100;27;21967;-34
2022/08/30 01:39:46;;;;;;;6.97;3.83;;;;;;;;;;5118003;27;20249;-34
2022/08/30 01:42:16;;;;;;;4.63;3.47;;;;;;;;;;5129319;27;20203;-33
2022/08/30 01:44:43;;;;;;;5.40;3.80;;;;;;;;;;5113589;27;20254;-34
2022/08/30 01:47:10;;;;;;;4.10;3.70;;;;;;;;;;5127211;27;20261;-31
2022/08/30 01:49:38;;;;;;;5.63;3.70;;;;;;;;;;5117403;27;20205;-34
2022/08/30 01:52:05;;;;;;;4.07;3.50;;;;;;;;;;5111585;28;20226;-33
2022/08/30 01:54:33;;;;;;;6.03;4.77;;;;;;;;;;5114056;27;20252;-34
2022/08/30 01:57:00;;;;;;;6.17;4.37;;;;;;;;;;5111751;27;20222;-32
2022/08/30 01:59:29;;;;;;;5.97;4.53;;;;;;;;;;5122462;27;20202;-33
2022/08/30 02:01:56;;;;;;;5.20;4.33;;;;;;;;;;5123369;27;20205;-35
2022/08/30 02:04:25;;;;;;;4.40;4.00;;;;;;;;;;5124128;27;20198;-32
2022/08/30 02:06:52;;;;;;;4.13;3.60;;;;;;;;;;5124788;27;20316;-35
2022/08/30 02:09:19;;;;;;;6.67;4.33;;;;;;;;;;5114873;27;20197;-34
2022/08/30 02:11:47;;;;;;;4.40;4.00;;;;;;;;;;5115496;27;20207;-36
2022/08/30 02:14:14;;;;;;;4.83;4.20;;;;;;;;;;5111851;27;20278;-34
2022/08/30 02:16:42;;;;;;;7.00;4.30;;;;;;;;;;5115452;27;20201;-33
2022/08/30 02:19:10;;;;;;;6.43;4.80;;;;;;;;;;5111309;28;20209;-37
2022/08/30 02:21:37;;;;;;;5.30;4.00;;;;;;;;;;5111782;28;20234;-33
2022/08/30 02:24:04;;;;;;;5.40;4.23;;;;;;;;;;5114519;27;20199;-33
2022/08/30 02:26:32;;;;;;;4.33;3.93;;;;;;;;;;5118881;27;20511;-30
2022/08/30 02:28:59;;;;;;;4.87;4.10;;;;;;;;;;5124914;27;20212;-35
2022/08/30 02:31:27;;;;;;;6.07;3.90;;;;;;;;;;5115771;27;20202;-33
2022/08/30 02:33:55;;;;;;;8.53;4.20;;;;;;;;;;5127409;27;20217;-35
2022/08/30 02:36:23;;;;;;;8.70;4.27;;;;;;;;;;5131199;27;20205;-31
2022/08/30 02:38:51;;;;;;;4.50;4.10;;;;;;;;;;5125500;27;20234;-35
2022/08/30 02:41:19;;;;;;;4.60;4.00;;;;;;;;;;5117910;28;20210;-32
2022/08/30 02:43:46;;;;;;;4.50;4.00;;;;;;;;;;5124754;27;20211;-31
2022/08/30 02:46:13;;;;;;;4.53;4.13;;;;;;;;;;5113180;28;20213;-36
2022/08/30 02:48:40;;;;;;;4.40;4.00;;;;;;;;;;5117319;27;20218;-32
2022/08/30 02:51:11;;;;;;;5.00;4.50;;;;;;;;;;5130992;28;20563;-32
2022/08/30 02:53:38;;;;;;;4.07;3.70;;;;;;;;;;5121859;28;20233;-32
2022/08/30 02:56:05;;;;;;;4.90;4.03;;;;;;;;;;5112172;28;20204;-34
2022/08/30 02:58:33;;;;;;;4.40;4.00;;;;;;;;;;5126306;28;20232;-34
2022/08/30 03:01:00;;;;;;;5.70;5.03;;;;;;;;;;5112868;28;20213;-33
2022/08/30 03:03:27;;;;;;;5.50;4.17;;;;;;;;;;5123859;28;20254;-34
2022/08/30 03:05:54;;;;;;;7.10;4.40;;;;;;;;;;5130841;28;20215;-33
2022/08/30 03:08:23;;;;;;;4.77;3.60;;;;;;;;;;5124720;28;20222;-34
2022/08/30 03:10:50;;;;;;;5.03;4.13;;;;;;;;;;5117185;28;20209;-34
2022/08/30 03:13:17;;;;;;;5.20;4.70;;;;;;;;;;5108576;28;20228;-33
2022/08/30 03:15:44;;;;;;;4.33;3.93;;;;;;;;;;5118125;28;20203;-34
2022/08/30 03:18:11;;;;;;;5.73;4.10;;;;;;;;;;5112373;28;20217;-34
2022/08/30 03:20:38;;;;;;;4.70;4.10;;;;;;;;;;5131119;28;20208;-33
2022/08/30 03:23:05;;;;;;;6.13;4.00;;;;;;;;;;5124761;28;20216;-31
2022/08/30 03:25:34;;;;;;;4.47;4.07;;;;;;;;;;5130266;28;20205;-33
2022/08/30 03:28:01;;;;;;;4.10;3.80;;;;;;;;;;5112570;28;20225;-34
2022/08/30 03:30:29;;;;;;;4.20;3.90;;;;;;;;;;5115081;28;20207;-33
2022/08/30 03:32:56;;;;;;;6.00;4.33;;;;;;;;;;5129527;28;20209;-35
2022/08/30 03:35:23;;;;;;;4.57;4.07;;;;;;;;;;5110468;28;20213;-33
2022/08/30 03:37:50;;;;;;;5.17;4.23;;;;;;;;;;5115462;27;20231;-35
2022/08/30 03:40:18;;;;;;;5.13;4.33;;;;;;;;;;5124867;27;20209;-35
2022/08/30 03:42:47;;;;;;;4.30;3.90;;;;;;;;;;5134623;27;20209;-35
2022/08/30 03:45:16;;;;;;;4.80;4.20;;;;;;;;;;5118415;27;20259;-31
2022/08/30 03:47:44;;;;;;;4.67;3.73;;;;;;;;;;5127381;27;20226;-34
2022/08/30 03:50:11;;;;;;;6.93;3.60;;;;;;;;;;5114086;28;20208;-34
2022/08/30 03:52:38;;;;;;;4.73;3.33;;;;;;;;;;5116708;27;20195;-35
2022/08/30 03:55:06;;;;;;;5.67;4.03;;;;;;;;;;5131111;27;20223;-31
2022/08/30 03:57:33;;;;;;;5.00;3.30;;;;;;;;;;5128336;27;20212;-33
2022/08/30 04:00:02;;;;;;;3.93;3.63;;;;;;;;;;5120674;27;20205;-33
2022/08/30 04:02:29;;;;;;;4.00;3.57;;;;;;;;;;5122073;27;20198;-32
2022/08/30 04:04:56;;;;;;;4.90;3.70;;;;;;;;;;5113491;28;20197;-32
2022/08/30 04:07:23;;;;;;;5.40;3.80;;;;;;;;;;5114855;27;20228;-36
2022/08/30 04:09:50;;;;;;;3.87;3.50;;;;;;;;;;5113575;28;20201;-32
2022/08/30 04:12:17;;;;;;;3.63;3.33;;;;;;;;;;5113637;28;20206;-31
2022/08/30 04:14:44;;;;;;;4.50;3.60;;;;;;;;;;5117827;27;20256;-33
2022/08/30 04:17:13;;;;;;;5.07;3.90;;;;;;;;;;5126760;27;20227;-31
2022/08/30 04:19:40;;;;;;;6.47;3.83;;;;;;;;;;5128421;27;20270;-35
2022/08/30 04:22:07;;;;;;;3.83;3.37;;;;;;;;;;5134012;27;20202;-32
2022/08/30 04:24:34;;;;;;;3.97;3.60;;;;;;;;;;5119886;27;20216;-34
2022/08/30 04:27:01;;;;;;;4.80;4.10;;;;;;;;;;5120369;27;20230;-31
2022/08/30 04:29:28;;;;;;;5.93;4.13;;;;;;;;;;5118714;27;20201;-31
2022/08/30 04:31:55;;;;;;;4.70;4.20;;;;;;;;;;5127384;27;20205;-33
2022/08/30 04:34:24;;;;;;;4.80;3.97;;;;;;;;;;5121568;27;20231;-30
2022/08/30 04:36:51;;;;;;;5.83;4.20;;;;;;;;;;5112892;28;20250;-32
2022/08/30 04:39:19;;;;;;;4.50;4.10;;;;;;;;;;5112959;27;20501;-32
2022/08/30 04:41:47;;;;;;;3.87;3.50;;;;;;;;;;5124080;27;20215;-32
2022/08/30 04:44:14;;;;;;;4.47;3.67;;;;;;;;;;5111482;27;20288;-35
2022/08/30 04:46:41;;;;;;;4.30;3.40;;;;;;;;;;5112327;28;20201;-32
2022/08/30 04:49:08;;;;;;;5.37;3.87;;;;;;;;;;5123381;27;20204;-35
2022/08/30 04:51:37;;;;;;;5.53;3.70;;;;;;;;;;5135023;27;20215;-31
2022/08/30 04:54:04;;;;;;;3.73;3.30;;;;;;;;;;5129642;27;20596;-32
2022/08/30 04:56:32;;;;;;;3.90;3.57;;;;;;;;;;5127544;27;20208;-35
2022/08/30 04:58:59;;;;;;;3.87;3.57;;;;;;;;;;5119041;27;20212;-30
2022/08/30 05:01:27;;;;;;;4.10;3.80;;;;;;;;;;5116248;27;20200;-31
2022/08/30 05:03:55;;;;;;;8.90;4.73;;;;;;;;;;5122722;27;20210;-34
2022/08/30 05:06:23;;;;;;;5.20;3.83;;;;;;;;;;5114275;28;20686;-30
2022/08/30 05:08:52;;;;;;;4.60;4.20;;;;;;;;;;5119416;27;20234;-33
2022/08/30 05:11:20;;;;;;;3.83;3.43;;;;;;;;;;5129484;27;20209;-35
2022/08/30 05:13:48;;;;;;;3.90;3.60;;;;;;;;;;5118015;27;20205;-31
2022/08/30 05:16:18;;;;;;;4.23;3.83;;;;;;;;;;5111615;28;20210;-30
2022/08/30 05:18:45;;;;;;;5.40;4.00;;;;;;;;;;5119150;27;20221;-32
2022/08/30 05:21:14;;;;;;;5.17;3.50;;;;;;;;;;5133542;27;20208;-29
2022/08/30 05:23:41;;;;;;;4.80;4.10;;;;;;;;;;5128416;27;20213;-30
2022/08/30 05:26:11;;;;;;;4.40;4.00;;;;;;;;;;5116544;27;20475;-33
2022/08/30 05:28:38;;;;;;;4.63;4.20;;;;;;;;;;5112569;27;20737;-30
2022/08/30 05:31:13;;;;;;;8.27;4.83;;;;;;;;;;5126897;27;20216;-31
2022/08/30 05:33:40;;;;;;;6.97;4.47;;;;;;;;;;5113223;28;20196;-30
2022/08/30 05:36:07;;;;;;;4.50;4.10;;;;;;;;;;5114287;28;20197;-33
2022/08/30 05:38:35;;;;;;;6.50;4.37;;;;;;;;;;5114399;27;20228;-30
2022/08/30 05:41:02;;;;;;;7.17;4.27;;;;;;;;;;5124809;27;20231;-32
2022/08/30 05:43:31;;;;;;;7.07;4.13;;;;;;;;;;5116477;27;20193;-33
2022/08/30 05:46:01;;;;;;;6.93;4.47;;;;;;;;;;5123275;27;20668;-34
2022/08/30 05:48:28;;;;;;;6.90;4.17;;;;;;;;;;5121776;27;20689;-34
2022/08/30 05:58:37;;;;;;;5.30;4.80;;;;;;;;;;5064107;28;20249;-31
2022/08/30 06:01:05;;;;;;;5.73;4.23;;;;;;;;;;5058524;28;20215;-31
2022/08/30 06:03:33;;;;;;;6.30;4.40;;;;;;;;;;5058760;28;20202;-30
2022/08/30 06:06:00;;;;;;;5.80;4.70;;;;;;;;;;5051090;28;20201;-32
2022/08/30 06:08:27;;;;;;;8.33;4.80;;;;;;;;;;5049193;28;20234;-32
2022/08/30 06:10:54;;;;;;;8.03;4.87;;;;;;;;;;5065929;28;20211;-32
2022/08/30 06:13:22;;;;;;;9.63;4.70;;;;;;;;;;5067447;28;20211;-30
2022/08/30 06:15:51;;;;;;;4.93;4.53;;;;;;;;;;5060430;28;20251;-29
2022/08/30 06:18:19;;;;;;;5.23;4.60;;;;;;;;;;5069790;28;20250;-31
2022/08/30 06:20:47;;;;;;;5.60;4.67;;;;;;;;;;5070918;28;20325;-30
2022/08/30 06:23:16;;;;;;;6.50;4.27;;;;;;;;;;5062746;28;20213;-30
2022/08/30 06:25:43;;;;;;;4.87;4.37;;;;;;;;;;5065292;28;20194;-29
2022/08/30 06:28:11;;;;;;;7.97;5.40;;;;;;;;;;5070647;28;20226;-33
2022/08/30 06:30:40;;;;;;;6.57;4.30;;;;;;;;;;5056978;28;20208;-31
2022/08/30 06:33:08;;;;;;;7.27;4.40;;;;;;;;;;5068523;28;20203;-32
2022/08/30 06:35:36;;;;;;;7.90;4.97;;;;;;;;;;5070599;28;20227;-33
2022/08/30 06:38:03;;;;;;;6.83;4.43;;;;;;;;;;5053361;28;20219;-31
2022/08/30 06:40:30;;;;;;;7.20;5.43;;;;;;;;;;5063174;28;20207;-31
2022/08/30 06:42:57;;;;;;;7.00;4.53;;;;;;;;;;5053811;28;20203;-31
2022/08/30 06:45:24;;;;;;;7.93;5.20;;;;;;;;;;5052158;28;20206;-31
2022/08/30 06:47:51;;;;;;;7.60;4.73;;;;;;;;;;5050048;28;20233;-30
2022/08/30 06:50:20;;;;;;;5.67;4.97;;;;;;;;;;5050165;28;20207;-32
2022/08/30 06:52:47;;;;;;;5.77;4.50;;;;;;;;;;5055828;28;20206;-32
2022/08/30 06:55:16;;;;;;;6.13;4.23;;;;;;;;;;5054156;28;20222;-30
2022/08/30 06:57:43;;;;;;;6.73;4.70;;;;;;;;;;5051491;28;20239;-32
2022/08/30 07:00:12;;;;;;;4.53;4.13;;;;;;;;;;5052804;28;20212;-33
2022/08/30 07:02:39;;;;;;;9.47;4.67;;;;;;;;;;5055430;28;20207;-31
2022/08/30 07:05:07;;;;;;;6.47;4.90;;;;;;;;;;5049589;28;20205;-32
2022/08/30 07:07:35;;;;;;;5.60;5.10;;;;;;;;;;5049223;28;20220;-33
2022/08/30 07:10:03;;;;;;;7.07;4.90;;;;;;;;;;5051751;28;20209;-32
2022/08/30 07:12:31;;;;;;;5.47;4.83;;;;;;;;;;5050006;28;20209;-33
2022/08/30 07:14:58;;;;;;;5.83;4.20;;;;;;;;;;5053592;28;20226;-32
2022/08/30 07:20:10;;;;;;;6.28;4.38;;;;;;;;;;5072326;28;20394;-31
2022/08/30 07:22:39;;;;;;;4.60;4.03;;;;;;;;;;5070339;28;20210;-32
2022/08/30 07:25:06;;;;;;;8.20;4.35;;;;;;;;;;5055084;28;20199;-32
2022/08/30 07:27:33;;;;;;;5.10;4.13;;;;;;;;;;5068340;28;20276;-30
2022/08/30 07:30:01;;;;;;;5.63;4.47;;;;;;;;;;5063708;28;20207;-30
2022/08/30 07:32:29;;;;;;;7.47;4.38;;;;;;;;;;5053041;28;20204;-32
2022/08/30 07:34:56;;;;;;;8.48;4.82;;;;;;;;;;5069388;28;20223;-30
2022/08/30 07:37:23;;;;;;;6.35;5.35;;;;;;;;;;5073345;28;20269;-32
2022/08/30 07:39:51;;;;;;;6.13;4.13;;;;;;;;;;5066340;28;20290;-30
2022/08/30 07:42:19;;;;;;;9.13;4.47;;;;;;;;;;5071809;28;20204;-31
2022/08/30 07:44:46;;;;;;;6.32;4.32;;;;;;;;;;5060022;28;20198;-30
2022/08/30 07:47:13;;;;;;;5.15;4.22;;;;;;;;;;5068058;28;20236;-31
2022/08/30 07:49:40;;;;;;;4.80;4.15;;;;;;;;;;5073181;28;20204;-32
2022/08/30 07:52:07;;;;;;;6.03;4.47;;;;;;;;;;5073571;28;20199;-31
2022/08/30 07:54:34;;;;;;;6.15;4.13;;;;;;;;;;5063799;28;20302;-32
2022/08/30 07:57:03;;;;;;;4.75;4.15;;;;;;;;;;5060481;28;20259;-31
2022/08/30 07:59:30;;;;;;;5.93;4.32;;;;;;;;;;5057532;28;20204;-30
2022/08/30 08:01:57;;;;;;;6.43;4.30;;;;;;;;;;5068742;28;20451;-30
2022/08/30 08:04:24;;;;;;;4.90;4.20;;;;;;;;;;5065167;28;20212;-33
2022/08/30 08:06:51;;;;;;;4.60;3.92;;;;;;;;;;5061511;28;20325;-31
2022/08/30 08:09:18;;;;;;;5.10;4.60;;;;;;;;;;5062970;28;20210;-31
2022/08/30 08:11:46;;;;;;;5.13;4.10;;;;;;;;;;5066479;28;20227;-30
2022/08/30 08:14:14;;;;;;;5.07;4.18;;;;;;;;;;5063102;28;20213;-33
2022/08/30 08:16:43;;;;;;;5.60;4.63;;;;;;;;;;5063449;28;20243;-31
2022/08/30 08:19:11;;;;;;;7.43;4.15;;;;;;;;;;5066936;28;20305;-32
2022/08/30 08:21:39;;;;;;;5.82;4.57;;;;;;;;;;5061338;28;20267;-30
2022/08/30 08:24:06;;;;;;;7.57;4.75;;;;;;;;;;5063198;28;20205;-30
2022/08/30 08:26:35;;;;;;;4.88;4.35;;;;;;;;;;5061165;28;20203;-32
2022/08/30 08:29:02;;;;;;;5.60;4.50;;;;;;;;;;5056253;28;20206;-30
2022/08/30 08:31:31;;;;;;;5.30;4.20;;;;;;;;;;5060580;28;20199;-32
2022/08/30 08:33:58;;;;;;;5.15;4.20;;;;;;;;;;5062353;28;20205;-33
2022/08/30 08:36:26;;;;;;;4.70;4.30;;;;;;;;;;5071904;28;20230;-32
2022/08/30 08:38:53;;;;;;;7.25;4.65;;;;;;;;;;5065125;28;20243;-31
2022/08/30 08:41:28;;;;;;;4.25;3.70;;;;;;;;;;5052206;28;20209;-32
2022/08/30 08:43:56;;;;;;;4.93;4.47;;;;;;;;;;5065817;28;20211;-30
2022/08/30 08:46:26;;;;;;;6.70;4.10;;;;;;;;;;5055517;28;20204;-34
2022/08/30 08:48:56;;;;;;;5.32;4.82;;;;;;;;;;5060217;28;20236;-33
2022/08/30 08:54:13;;;;;;;6.82;4.10;;;;;;;;;;5065341;28;20284;-31
2022/08/30 08:56:40;;;;;;;5.53;4.20;;;;;;;;;;5063652;28;20247;-31
2022/08/30 08:59:08;;;;;;;5.70;4.60;;;;;;;;;;5065896;28;20212;-32
2022/08/30 09:01:37;;;;;;;5.28;4.28;;;;;;;;;;5061841;28;20204;-32
2022/08/30 09:04:08;;;;;;;5.07;4.57;;;;;;;;;;5072146;28;20212;-31
2022/08/30 09:06:46;;;;;;;6.10;4.30;;;;;;;;;;5072568;28;20199;-33
2022/08/30 09:09:14;;;;;;;9.70;4.90;;;;;;;;;;5068473;28;20201;-30
2022/08/30 09:11:42;;;;;;;5.70;4.43;;;;;;;;;;5066093;28;20205;-30
2022/08/30 09:14:10;;;;;;;5.10;4.65;;;;;;;;;;5057816;28;20323;-30
2022/08/30 09:16:46;;;;;;;6.38;4.88;;;;;;;;;;5066132;28;20222;-32
2022/08/30 09:19:26;;;;;;;5.60;4.57;;;;;;;;;;5072034;28;20204;-30
2022/08/30 09:21:56;;;;;;;4.85;4.35;;;;;;;;;;5072229;28;20217;-33
2022/08/30 09:24:23;;;;;;;4.68;4.07;;;;;;;;;;5058020;28;20212;-30
2022/08/30 09:26:51;;;;;;;4.60;4.20;;;;;;;;;;5051475;28;20199;-30
2022/08/30 09:29:19;;;;;;;5.03;4.32;;;;;;;;;;5067882;28;20213;-30
2022/08/30 09:31:49;;;;;;;5.47;4.63;;;;;;;;;;5071502;28;20222;-33
2022/08/30 09:34:19;;;;;;;4.35;3.95;;;;;;;;;;5071287;28;20256;-32
2022/08/30 09:36:48;;;;;;;5.25;4.72;;;;;;;;;;5070789;28;20227;-33
2022/08/30 09:39:17;;;;;;;4.55;4.07;;;;;;;;;;5064907;28;20356;-32
2022/08/30 09:41:47;;;;;;;5.43;4.53;;;;;;;;;;5062700;28;20196;-32
2022/08/30 09:44:16;;;;;;;4.88;4.22;;;;;;;;;;5063760;28;20213;-31
2022/08/30 09:46:44;;;;;;;4.85;4.40;;;;;;;;;;5062788;28;20204;-30
2022/08/30 09:49:27;;;;;;;6.38;4.57;;;;;;;;;;5052871;28;20204;-30
2022/08/30 09:51:59;;;;;;;4.72;3.65;;;;;;;;;;5052029;28;20275;-32
2022/08/30 09:54:32;;;;;;;5.72;4.47;;;;;;;;;;5059774;28;20207;-33
2022/08/30 09:57:04;;;;;;;4.80;4.00;;;;;;;;;;5059561;28;20236;-31
2022/08/30 09:59:38;;;;;;;4.35;4.05;;;;;;;;;;5065495;28;20212;-32
2022/08/30 10:02:13;;;;;;;5.88;4.28;;;;;;;;;;5054391;28;20266;-33
2022/08/30 10:04:46;;;;;;;4.95;4.32;;;;;;;;;;5050842;28;20209;-31
2022/08/30 10:07:16;;;;;;;4.28;3.88;;;;;;;;;;5051761;28;20228;-32
2022/08/30 10:09:47;;;;;;;6.18;4.43;;;;;;;;;;5056355;28;20212;-33
2022/08/30 10:12:17;;;;;;;4.00;3.70;;;;;;;;;;5061779;28;20576;-32
2022/08/30 10:14:49;;;;;;;4.32;3.90;;;;;;;;;;5062492;28;20200;-30
2022/08/30 10:17:19;;;;;;;4.22;3.83;;;;;;;;;;5059281;28;20235;-32
2022/08/30 10:19:57;;;;;;;5.55;4.10;;;;;;;;;;5066465;28;20215;-30
2022/08/30 10:22:29;;;;;;;6.40;3.63;;;;;;;;;;5064906;28;20204;-32
2022/08/30 10:25:02;;;;;;;6.90;4.13;;;;;;;;;;5050189;28;20257;-33
2022/08/30 10:27:30;;;;;;;4.82;3.80;;;;;;;;;;5049806;28;20219;-32
2022/08/30 10:30:01;;;;;;;3.65;3.35;;;;;;;;;;5061055;28;20214;-33
2022/08/30 10:32:30;;;;;;;5.25;4.30;;;;;;;;;;5061772;28;20236;-32
2022/08/30 10:35:03;;;;;;;5.10;4.38;;;;;;;;;;5070209;28;20236;-29
2022/08/30 10:37:32;;;;;;;4.25;3.83;;;;;;;;;;5067164;28;20223;-30
2022/08/30 10:41:11;;;;;;;4.93;3.88;;;;;;;;;;5070391;28;20208;-31
2022/08/30 10:42:51;;;;;;;5.80;4.28;;;;;;;;;;5069832;28;20210;-32
2022/08/30 10:45:18;;;;;;;4.82;4.22;;;;;;;;;;5061184;28;20210;-31
2022/08/30 10:47:50;;;;;;;4.63;3.80;;;;;;;;;;5057615;28;20605;-30
2022/08/30 10:50:23;;;;;;;4.93;3.67;;;;;;;;;;5049985;28;20212;-30
2022/08/30 10:52:53;;;;;;;5.68;4.15;;;;;;;;;;5052473;28;20261;-32
2022/08/30 10:55:21;;;;;;;4.72;3.78;;;;;;;;;;5061353;28;20201;-33
2022/08/30 10:57:49;;;;;;;6.35;4.13;;;;;;;;;;5069710;28;20644;-31
2022/08/30 11:00:23;;;;;;;5.47;3.53;;;;;;;;;;5052970;28;20274;-31
2022/08/30 11:03:08;;;;;;;4.70;3.90;;;;;;;;;;5057493;28;20221;-31
2022/08/30 11:05:45;;;;;;;6.45;3.85;;;;;;;;;;5069826;28;20207;-29
2022/08/30 11:08:17;;;;;;;6.40;3.33;;;;;;;;;;5067174;28;20226;-32
2022/08/30 11:10:51;;;;;;;3.85;3.50;;;;;;;;;;5054530;28;20206;-33
2022/08/30 11:13:21;;;;;;;3.92;3.53;;;;;;;;;;5066619;28;20200;-31
2022/08/30 11:15:57;;;;;;;3.80;3.40;;;;;;;;;;5060343;28;20224;-31
2022/08/30 11:18:25;;;;;;;4.30;3.90;;;;;;;;;;5061970;28;20217;-31
2022/08/30 11:20:55;;;;;;;3.90;3.58;;;;;;;;;;5070078;28;20210;-30
2022/08/30 11:23:25;;;;;;;5.90;3.97;;;;;;;;;;5058119;28;20208;-30
2022/08/30 11:25:53;;;;;;;3.92;3.55;;;;;;;;;;5055806;28;20214;-29
2022/08/30 11:28:39;;;;;;;3.90;3.50;;;;;;;;;;5048236;28;20224;-32
2022/08/30 11:31:07;;;;;;;4.38;3.60;;;;;;;;;;5050837;28;20212;-31
2022/08/30 11:33:45;;;;;;;3.92;3.55;;;;;;;;;;5056011;28;20211;-32
2022/08/30 11:36:37;;;;;;;3.67;3.38;;;;;;;;;;5049600;28;20225;-32
2022/08/30 11:39:08;;;;;;;3.85;3.40;;;;;;;;;;5062636;28;20212;-32
2022/08/30 11:41:37;;;;;;;4.45;3.35;;;;;;;;;;5058043;28;20206;-30
2022/08/30 11:44:31;;;;;;;3.70;3.28;;;;;;;;;;5059202;28;20213;-33
2022/08/30 11:46:58;;;;;;;5.63;3.70;;;;;;;;;;5020798;28;20231;-33
2022/08/30 11:49:40;;;;;;;5.53;3.83;;;;;;;;;;5058783;28;20204;-33
2022/08/30 11:54:43;;;;;;;3.67;3.38;;;;;;;;;;5081895;28;20210;-34
2022/08/30 11:57:17;;;;;;;5.85;3.90;;;;;;;;;;5082903;28;20260;-32
2022/08/30 11:59:48;;;;;;;3.67;3.38;;;;;;;;;;5083934;28;20261;-34
2022/08/30 12:02:30;;;;;;;3.67;3.35;;;;;;;;;;5078372;28;20212;-34
2022/08/30 12:04:57;;;;;;;4.00;3.58;;;;;;;;;;5095435;28;20202;-35
2022/08/30 12:07:39;;;;;;;3.90;3.60;;;;;;;;;;5086869;28;20219;-34
2022/08/30 12:10:21;;;;;;;4.45;3.67;;;;;;;;;;5088425;28;20568;-35
2022/08/30 12:12:52;;;;;;;3.75;3.42;;;;;;;;;;5095744;28;20194;-36
2022/08/30 12:15:49;;;;;;;4.10;3.70;;;;;;;;;;5078895;28;20205;-35
2022/08/30 12:18:26;;;;;;;3.65;3.30;;;;;;;;;;5076659;28;20693;-35
2022/08/30 12:20:54;;;;;;;3.53;3.22;;;;;;;;;;5079821;28;20202;-34
2022/08/30 12:23:24;;;;;;;4.32;3.65;;;;;;;;;;5081641;28;20205;-35
2022/08/30 12:26:09;;;;;;;4.28;3.50;;;;;;;;;;5080968;28;20211;-35
2022/08/30 12:28:36;;;;;;;3.60;3.30;;;;;;;;;;5089794;28;20237;-35
2022/08/30 12:31:08;;;;;;;4.75;3.70;;;;;;;;;;5087070;28;20199;-33
2022/08/30 12:33:39;;;;;;;4.15;3.17;;;;;;;;;;5081675;28;20196;-33
2022/08/30 12:36:07;;;;;;;4.10;3.70;;;;;;;;;;5088197;28;20848;-33
2022/08/30 12:38:36;;;;;;;3.63;3.33;;;;;;;;;;5075490;28;20495;-36
2022/08/30 12:41:04;;;;;;;3.92;3.33;;;;;;;;;;5075439;28;20203;-31
2022/08/30 12:43:35;;;;;;;3.80;3.20;;;;;;;;;;5083965;28;20211;-32
2022/08/30 12:46:04;;;;;;;4.15;3.75;;;;;;;;;;5084532;28;20215;-35
2022/08/30 12:48:34;;;;;;;3.65;3.35;;;;;;;;;;5078898;28;20248;-35
2022/08/30 12:51:01;;;;;;;3.58;3.35;;;;;;;;;;5088317;28;20201;-32
2022/08/30 12:53:30;;;;;;;4.05;3.30;;;;;;;;;;5080134;28;20879;-34
2022/08/30 12:55:58;;;;;;;3.75;3.38;;;;;;;;;;5083397;28;20526;-34
2022/08/30 12:58:38;;;;;;;4.22;3.83;;;;;;;;;;5079919;28;20219;-32
2022/08/30 13:01:12;;;;;;;3.78;3.42;;;;;;;;;;5079114;28;20209;-35
2022/08/30 13:03:40;;;;;;;4.07;3.72;;;;;;;;;;5085437;28;20198;-35
2022/08/30 13:06:08;;;;;;;4.97;3.47;;;;;;;;;;5084006;28;20254;-35
2022/08/30 13:08:36;;;;;;;3.80;3.50;;;;;;;;;;5074178;28;20221;-35
2022/08/30 13:11:05;;;;;;;3.75;3.40;;;;;;;;;;5082292;28;20235;-33
2022/08/30 13:13:36;;;;;;;5.22;3.67;;;;;;;;;;5079443;28;20211;-35
2022/08/30 13:16:24;;;;;;;3.70;3.40;;;;;;;;;;5085245;28;20212;-34
2022/08/30 13:18:52;;;;;;;3.20;3.00;;;;;;;;;;5083889;28;20701;-35
2022/08/30 13:21:21;;;;;;;3.30;3.10;;;;;;;;;;5085012;28;20207;-37
2022/08/30 13:23:48;;;;;;;3.92;3.53;;;;;;;;;;5079637;28;20246;-35
2022/08/30 13:26:16;;;;;;;3.97;3.58;;;;;;;;;;5088593;28;20515;-36
2022/08/30 13:28:43;;;;;;;3.83;3.38;;;;;;;;;;5084107;28;20230;-36
2022/08/30 13:31:11;;;;;;;4.57;3.47;;;;;;;;;;5087939;28;20201;-36
2022/08/30 13:33:39;;;;;;;7.13;3.50;;;;;;;;;;5087093;28;20192;-35
2022/08/30 13:36:07;;;;;;;5.60;3.58;;;;;;;;;;5084931;28;20234;-36
2022/08/30 13:38:34;;;;;;;4.15;3.33;;;;;;;;;;5082835;28;20224;-34
2022/08/30 13:41:02;;;;;;;5.78;3.78;;;;;;;;;;5087726;28;20243;-34
2022/08/30 13:43:29;;;;;;;32.58;10.68;;;;;;;;;;5084171;28;20866;-35
2022/08/30 13:45:57;;;;;;;6.88;4.10;;;;;;;;;;5083019;28;20204;-36
2022/08/30 13:48:24;;;;;;;3.75;3.42;;;;;;;;;;5082697;28;20227;-34
2022/08/30 13:50:54;;;;;;;4.80;3.85;;;;;;;;;;5082700;28;20204;-32
2022/08/30 13:53:21;;;;;;;7.15;4.03;;;;;;;;;;5083254;28;20219;-35
2022/08/30 13:55:48;;;;;;;4.03;3.60;;;;;;;;;;5084892;28;20196;-35
2022/08/30 13:58:16;;;;;;;4.22;3.53;;;;;;;;;;5081001;28;20563;-33
2022/08/30 14:00:44;;;;;;;4.07;3.67;;;;;;;;;;5079510;28;20288;-37
2022/08/30 14:03:11;;;;;;;3.80;3.50;;;;;;;;;;5073557;28;20231;-37
2022/08/30 14:05:40;;;;;;;4.47;3.65;;;;;;;;;;5072542;28;20207;-33
2022/08/30 14:08:09;;;;;;;4.00;3.70;;;;;;;;;;5071726;28;20228;-35
2022/08/30 14:10:37;;;;;;;3.60;3.30;;;;;;;;;;5085288;28;20591;-33
2022/08/30 14:13:05;;;;;;;4.18;3.25;;;;;;;;;;5075762;28;20214;-34
2022/08/30 14:15:33;;;;;;;4.20;3.72;;;;;;;;;;5083384;28;20663;-35
2022/08/30 14:18:00;;;;;;;3.40;3.20;;;;;;;;;;5084298;28;20626;-34
2022/08/30 14:20:28;;;;;;;4.10;3.80;;;;;;;;;;5072716;28;20266;-34
2022/08/30 14:22:55;;;;;;;3.97;3.58;;;;;;;;;;5074112;28;20203;-36
2022/08/30 14:25:27;;;;;;;3.63;3.42;;;;;;;;;;5071954;28;20409;-36
2022/08/30 14:27:54;;;;;;;5.65;3.97;;;;;;;;;;5080448;28;20219;-33
2022/08/30 14:30:21;;;;;;;3.53;3.13;;;;;;;;;;5073499;28;20208;-33
2022/08/30 14:32:48;;;;;;;3.97;3.47;;;;;;;;;;5071494;28;20200;-36
2022/08/30 14:35:17;;;;;;;3.45;3.15;;;;;;;;;;5090061;28;20211;-33
2022/08/30 14:37:44;;;;;;;3.53;3.22;;;;;;;;;;5090416;28;20257;-34
2022/08/30 14:40:11;;;;;;;3.17;2.97;;;;;;;;;;5091109;28;20218;-35
2022/08/30 14:42:40;;;;;;;3.80;3.50;;;;;;;;;;5083751;28;20204;-37
2022/08/30 14:45:08;;;;;;;3.47;3.17;;;;;;;;;;5086258;28;20207;-33
2022/08/30 14:47:35;;;;;;;5.10;4.18;;;;;;;;;;5081068;28;20263;-32
2022/08/30 14:50:08;;;;;;;3.53;3.22;;;;;;;;;;5089077;28;20206;-36
2022/08/30 14:52:36;;;;;;;4.10;3.40;;;;;;;;;;5092357;28;20222;-33
2022/08/30 14:55:05;;;;;;;3.63;3.30;;;;;;;;;;5092537;28;20200;-36
2022/08/30 14:57:32;;;;;;;4.25;3.85;;;;;;;;;;5083599;28;20237;-35
2022/08/30 15:00:00;;;;;;;4.35;3.50;;;;;;;;;;5075617;28;20209;-36
2022/08/30 15:02:29;;;;;;;4.53;3.20;;;;;;;;;;5071764;28;20200;-35
2022/08/30 15:04:56;;;;;;;3.90;3.60;;;;;;;;;;5071956;28;20558;-35
2022/08/30 15:07:23;;;;;;;3.40;3.10;;;;;;;;;;5074776;28;20218;-35
2022/08/30 15:09:50;;;;;;;3.63;3.33;;;;;;;;;;5074155;28;20211;-34